Time;durP1;ratioP1;P1;durP2;ratioP2;P2;SDS_P1;SDS_P2;PMS_P1;PMS_P2;Temp;Humidity;BMP_temperature;BMP_pressure;BME280_temperature;BME280_humidity;BME280_pressure;Samples;Min_cycle;Max_cycle;Signal;HPM_P1;HPM_P2
2020/12/01 00:01:53;;;;;;;;;19.50;16.00;;;;;20.60;59.40;99571.97;5072007;28;10376;-70
2020/12/01 00:04:21;;;;;;;;;10.25;10.25;;;;;20.68;60.54;99593.44;5071920;28;10499;-69
2020/12/01 00:06:49;;;;;;;;;12.50;10.75;;;;;20.63;59.47;99590.91;5072001;28;10998;-71
2020/12/01 00:09:18;;;;;;;;;11.00;8.75;;;;;20.65;60.53;99602.13;5071967;28;11124;-69
2020/12/01 00:11:46;;;;;;;;;14.25;11.75;;;;;20.62;60.17;99599.25;5072429;28;10309;-70
2020/12/01 00:14:14;;;;;;;;;15.00;15.00;;;;;20.47;59.46;99581.72;5072392;28;10475;-69
2020/12/01 00:16:45;;;;;;;;;15.25;15.00;;;;;20.60;59.57;99606.81;5070982;28;10402;-69
2020/12/01 00:19:14;;;;;;;;;14.50;11.75;;;;;20.58;59.49;99609.81;5070854;28;10540;-69
2020/12/01 00:21:45;;;;;;;;;17.00;14.25;;;;;20.49;60.76;99601.75;5071766;28;10346;-69
2020/12/01 00:24:14;;;;;;;;;15.75;14.75;;;;;20.54;59.80;99606.19;5071536;28;10395;-68
2020/12/01 00:26:44;;;;;;;;;12.50;10.50;;;;;20.58;59.75;99617.88;5079441;28;10451;-68
2020/12/01 00:29:12;;;;;;;;;17.75;14.00;;;;;20.62;59.62;99615.34;5081364;28;10516;-68
2020/12/01 00:31:41;;;;;;;;;22.50;16.25;;;;;20.64;59.35;99621.19;5080669;28;10326;-69
2020/12/01 00:34:12;;;;;;;;;16.75;13.75;;;;;20.66;60.58;99617.09;5091595;28;10633;-70
2020/12/01 00:36:41;;;;;;;;;13.00;12.75;;;;;20.62;59.61;99600.06;5084399;28;10501;-69
2020/12/01 00:39:11;;;;;;;;;15.25;13.75;;;;;20.76;59.31;99608.75;5074825;28;10468;-68
2020/12/01 00:41:40;;;;;;;;;19.25;15.00;;;;;20.80;59.12;99600.88;5069242;28;10526;-68
2020/12/01 00:44:08;;;;;;;;;11.75;11.75;;;;;20.88;59.13;99618.06;5069825;28;10638;-70
2020/12/01 00:46:37;;;;;;;;;15.00;13.25;;;;;21.01;58.88;99636.69;5069612;28;10991;-70
2020/12/01 00:49:07;;;;;;;;;15.00;13.00;;;;;20.99;58.78;99625.50;5069681;28;10559;-72
2020/12/01 00:51:36;;;;;;;;;13.50;11.00;;;;;21.14;58.47;99633.06;5068949;28;10362;-70
2020/12/01 00:54:04;;;;;;;;;9.50;6.00;;;;;21.23;58.47;99635.81;5082889;28;10507;-70
2020/12/01 00:56:32;;;;;;;;;12.50;10.50;;;;;21.33;58.31;99645.44;5089603;28;11151;-69
2020/12/01 00:59:01;;;;;;;;;13.75;12.50;;;;;21.41;58.32;99644.63;5104980;28;10395;-68
2020/12/01 01:01:31;;;;;;;;;19.25;19.25;;;;;21.44;58.05;99655.53;5086643;28;10460;-70
2020/12/01 01:04:00;;;;;;;;;13.75;12.00;;;;;21.57;57.95;99659.16;5080664;28;10729;-70
2020/12/01 01:06:28;;;;;;;;;15.75;15.75;;;;;21.48;57.67;99645.75;5084894;28;10245;-70
2020/12/01 01:08:56;;;;;;;;;12.00;9.75;;;;;21.71;57.44;99675.09;5074820;28;10396;-70
2020/12/01 01:11:30;;;;;;;;;16.00;10.00;;;;;21.78;57.29;99675.41;5074025;28;10353;-70
2020/12/01 01:13:59;;;;;;;;;14.25;12.50;;;;;21.79;57.16;99674.31;5078787;28;10321;-68
2020/12/01 01:16:28;;;;;;;;;11.00;10.00;;;;;21.81;57.02;99683.63;5075087;28;10253;-68
2020/12/01 01:18:57;;;;;;;;;9.00;9.00;;;;;21.90;56.90;99690.88;5073005;28;10314;-69
2020/12/01 01:21:25;;;;;;;;;12.50;12.00;;;;;21.97;57.02;99688.50;5083841;28;10373;-67
2020/12/01 01:23:53;;;;;;;;;9.50;8.00;;;;;22.01;56.77;99702.88;5070720;28;10363;-67
2020/12/01 01:26:22;;;;;;;;;12.50;11.50;;;;;22.09;56.60;99705.56;5072071;28;10125;-70
2020/12/01 01:28:50;;;;;;;;;10.25;10.25;;;;;22.10;56.38;99703.69;5071862;28;10165;-68
2020/12/01 01:31:19;;;;;;;;;12.25;9.25;;;;;22.18;56.38;99700.16;5084966;28;10000;-70
2020/12/01 01:33:48;;;;;;;;;11.00;9.00;;;;;22.23;56.21;99724.19;5071872;28;10091;-70
2020/12/01 01:36:16;;;;;;;;;10.50;8.25;;;;;22.29;56.03;99714.03;5089365;28;10213;-69
2020/12/01 01:38:45;;;;;;;;;15.75;11.25;;;;;22.27;55.79;99706.31;5072541;28;10049;-69
2020/12/01 01:41:13;;;;;;;;;9.00;9.00;;;;;22.36;55.86;99719.72;5072136;28;10176;-68
2020/12/01 01:43:42;;;;;;;;;13.00;11.50;;;;;22.40;55.70;99720.66;5072019;28;9956;-69
2020/12/01 01:46:32;;;;;;;;;8.25;7.75;;;;;22.43;55.60;99711.94;5072993;28;9913;-69
2020/12/01 01:49:04;;;;;;;;;9.75;9.75;;;;;22.48;55.50;99714.47;5073763;28;10034;-69
2020/12/01 01:51:35;;;;;;;;;11.00;10.50;;;;;22.49;53.81;99721.41;5074019;28;9854;-69
2020/12/01 01:54:05;;;;;;;;;8.50;7.00;;;;;22.55;55.31;99717.44;5073974;28;9849;-68
2020/12/01 01:56:37;;;;;;;;;14.00;10.25;;;;;22.57;55.22;99715.22;5074426;28;9992;-69
2020/12/01 01:59:07;;;;;;;;;13.25;11.75;;;;;22.60;55.05;99714.56;5074406;28;9950;-70
2020/12/01 02:01:36;;;;;;;;;12.25;10.75;;;;;22.64;55.03;99718.19;5074433;28;10077;-71
2020/12/01 02:04:08;;;;;;;;;12.00;12.00;;;;;22.67;55.00;99714.06;5069707;28;10596;-71
2020/12/01 02:06:50;;;;;;;;;12.50;11.50;;;;;22.70;54.81;99716.91;5074356;28;10178;-70
2020/12/01 02:09:34;;;;;;;;;11.50;11.50;;;;;22.72;54.76;99713.88;5073361;28;10010;-71
2020/12/01 02:12:05;;;;;;;;;11.75;11.75;;;;;22.80;54.74;99713.09;5072701;28;10009;-71
2020/12/01 02:14:56;;;;;;;;;10.25;9.00;;;;;22.87;54.62;99726.03;5074034;28;9929;-70
2020/12/01 02:17:30;;;;;;;;;5.25;4.00;;;;;22.88;54.75;99720.34;5074065;28;9936;-70
2020/12/01 02:20:09;;;;;;;;;12.00;11.25;;;;;22.93;54.66;99730.13;5072595;28;9774;-69
2020/12/01 02:22:39;;;;;;;;;10.50;10.50;;;;;22.94;54.50;99724.41;5073922;28;9798;-69
2020/12/01 02:25:08;;;;;;;;;10.25;8.00;;;;;22.96;54.31;99724.88;5078484;28;9788;-69
2020/12/01 02:27:36;;;;;;;;;12.75;11.25;;;;;23.03;54.43;99730.53;5082675;28;9678;-70
2020/12/01 02:30:11;;;;;;;;;14.25;8.75;;;;;23.05;54.31;99719.47;5082994;28;9685;-70
2020/12/01 02:32:39;;;;;;;;;13.25;10.00;;;;;23.15;54.26;99718.28;5072383;28;9519;-70
2020/12/01 02:35:10;;;;;;;;;10.50;9.25;;;;;23.20;54.07;99715.41;5071103;28;9547;-69
2020/12/01 02:37:42;;;;;;;;;11.25;10.75;;;;;23.23;53.48;99712.84;5072533;28;9525;-69
2020/12/01 02:40:14;;;;;;;;;11.00;9.25;;;;;23.28;53.78;99709.19;5072642;28;9562;-70
2020/12/01 02:42:43;;;;;;;;;14.00;10.00;;;;;23.28;53.68;99687.66;5071428;28;9663;-69
2020/12/01 02:45:13;;;;;;;;;15.75;11.00;;;;;23.35;53.18;99706.75;5077043;28;9535;-70
2020/12/01 02:47:42;;;;;;;;;10.50;8.75;;;;;23.34;53.02;99699.78;5073669;28;9604;-71
2020/12/01 02:50:13;;;;;;;;;9.50;9.50;;;;;23.42;53.47;99694.31;5073158;28;9738;-70
2020/12/01 02:52:42;;;;;;;;;14.75;11.75;;;;;23.46;53.57;99688.28;5073366;28;9578;-69
2020/12/01 02:55:10;;;;;;;;;10.50;9.00;;;;;23.56;53.23;99704.84;5073459;28;9652;-70
2020/12/01 02:57:38;;;;;;;;;11.00;11.00;;;;;23.49;53.30;99671.47;5073163;28;9682;-67
2020/12/01 03:00:07;;;;;;;;;10.00;7.75;;;;;23.64;53.17;99687.84;5073308;28;9534;-69
2020/12/01 03:02:35;;;;;;;;;12.00;12.00;;;;;23.71;51.99;99693.47;5073188;28;9466;-70
2020/12/01 03:05:04;;;;;;;;;17.50;14.50;;;;;23.71;51.74;99679.22;5073607;28;9527;-71
2020/12/01 03:07:32;;;;;;;;;13.00;11.75;;;;;23.80;53.12;99671.84;5073145;28;9648;-70
2020/12/01 03:10:00;;;;;;;;;9.25;6.25;;;;;23.90;53.01;99681.41;5072749;28;9609;-70
2020/12/01 03:12:31;;;;;;;;;9.50;7.50;;;;;23.93;52.79;99689.63;5073005;28;10214;-69
2020/12/01 03:15:00;;;;;;;;;11.00;11.00;;;;;23.88;52.74;99665.59;5073021;28;9507;-70
2020/12/01 03:17:29;;;;;;;;;8.33;8.00;;;;;24.02;52.75;99679.56;5072837;28;9465;-70
2020/12/01 03:19:57;;;;;;;;;11.00;9.67;;;;;24.07;52.27;99670.47;5072971;28;9255;-70
2020/12/01 03:22:25;;;;;;;;;13.67;10.67;;;;;24.12;52.63;99666.78;5072597;28;9255;-70
2020/12/01 03:24:54;;;;;;;;;13.67;13.00;;;;;24.13;52.70;99663.75;5072622;28;9263;-70
2020/12/01 03:27:22;;;;;;;;;10.33;10.33;;;;;24.23;52.38;99667.91;5072882;28;9291;-70
2020/12/01 03:29:51;;;;;;;;;9.67;9.33;;;;;24.24;52.44;99669.50;5072796;28;9305;-70
2020/12/01 03:32:23;;;;;;;;;8.00;7.67;;;;;24.29;52.25;99663.91;5072574;28;9243;-70
2020/12/01 03:34:52;;;;;;;;;12.33;11.67;;;;;24.30;52.14;99660.88;5074495;28;9260;-70
2020/12/01 03:37:20;;;;;;;;;9.00;7.67;;;;;24.27;52.10;99636.50;5086206;28;9313;-70
2020/12/01 03:39:49;;;;;;;;;11.33;11.33;;;;;24.44;52.03;99647.06;5078686;28;9337;-71
2020/12/01 03:42:18;;;;;;;;;12.33;9.67;;;;;24.48;50.73;99645.28;5069410;28;9488;-69
2020/12/01 03:44:46;;;;;;;;;8.67;8.67;;;;;24.49;51.54;99627.19;5070512;28;9159;-71
2020/12/01 03:47:15;;;;;;;;;9.00;9.00;;;;;24.46;51.70;99617.06;5070460;28;9147;-71
2020/12/01 03:49:43;;;;;;;;;12.67;11.67;;;;;24.66;51.85;99635.03;5069618;28;9888;-71
2020/12/01 03:52:12;;;;;;;;;9.00;7.00;;;;;24.72;51.60;99630.97;5069100;28;9187;-70
2020/12/01 03:54:40;;;;;;;;;9.67;8.00;;;;;24.75;51.42;99627.59;5069165;28;9076;-71
2020/12/01 03:57:09;;;;;;;;;6.33;6.33;;;;;24.80;51.36;99635.44;5068956;28;8977;-70
2020/12/01 03:59:37;;;;;;;;;6.33;6.33;;;;;24.89;51.35;99624.53;5068174;28;9092;-71
2020/12/01 04:02:06;;;;;;;;;7.67;7.67;;;;;24.93;50.00;99623.50;5084673;28;9203;-71
2020/12/01 04:04:34;;;;;;;;;10.00;10.00;;;;;24.99;51.14;99616.78;5069356;28;8988;-71
2020/12/01 04:07:03;;;;;;;;;8.67;6.33;;;;;25.02;50.81;99607.22;5069315;28;9774;-71
2020/12/01 04:09:32;;;;;;;;;10.67;10.67;;;;;25.12;49.86;99606.75;5069093;28;9025;-73
2020/12/01 04:12:00;;;;;;;;;8.67;7.67;;;;;25.19;50.82;99590.75;5069033;28;8941;-71
2020/12/01 04:14:28;;;;;;;;;11.00;8.00;;;;;25.27;50.80;99587.13;5068118;28;8950;-70
2020/12/01 04:16:57;;;;;;;;;7.00;5.67;;;;;25.27;50.03;99572.81;5073647;28;9686;-71
2020/12/01 04:19:25;;;;;;;;;6.00;5.33;;;;;25.39;50.86;99569.28;5085706;28;8988;-69
2020/12/01 04:21:53;;;;;;;;;11.33;8.00;;;;;25.43;50.57;99573.66;5076468;28;8934;-70
2020/12/01 04:24:22;;;;;;;;;7.75;6.25;;;;;25.36;50.26;99547.25;5077100;28;8987;-69
2020/12/01 04:26:50;;;;;;;;;7.25;5.50;;;;;25.44;50.13;99547.44;5075178;28;8853;-69
2020/12/01 04:29:18;;;;;;;;;8.75;7.00;;;;;25.49;50.19;99544.47;5079868;28;8870;-68
2020/12/01 04:31:46;;;;;;;;;8.75;7.00;;;;;25.49;50.00;99539.06;5073467;28;8867;-68
2020/12/01 04:34:15;;;;;;;;;6.25;6.25;;;;;25.51;49.94;99529.50;5080507;28;8889;-69
2020/12/01 04:36:43;;;;;;;;;10.00;6.75;;;;;25.55;49.84;99529.59;5087181;28;9700;-69
2020/12/01 04:39:13;;;;;;;;;10.00;7.00;;;;;25.62;49.72;99521.66;5086361;28;8860;-69
2020/12/01 04:41:42;;;;;;;;;6.25;6.25;;;;;25.66;49.80;99525.25;5075458;28;9557;-68
2020/12/01 04:44:36;;;;;;;;;6.25;6.00;;;;;25.71;49.60;99525.00;5075608;28;8852;-69
2020/12/01 04:47:18;;;;;;;;;11.00;7.00;;;;;25.79;49.61;99518.66;5071686;28;8860;-70
2020/12/01 04:50:08;;;;;;;;;6.75;6.75;;;;;25.82;48.83;99517.16;5069123;28;8957;-68
2020/12/01 04:53:08;;;;;;;;;6.75;6.75;;;;;25.85;49.52;99506.44;5067865;28;8808;-68
2020/12/01 04:56:12;;;;;;;;;12.67;7.00;;;;;25.90;49.40;99503.47;5068187;28;8812;-70
2020/12/01 04:59:13;;;;;;;;;5.75;2.25;;;;;26.07;49.23;99498.81;5068787;28;8987;-70
2020/12/01 05:02:06;;;;;;;;;6.00;4.00;;;;;26.16;47.37;99494.78;5066781;28;8850;-70
2020/12/01 05:05:02;;;;;;;;;10.25;8.00;;;;;26.24;49.01;99476.78;5067635;28;8937;-68
2020/12/01 05:08:12;;;;;;;;;2.50;2.50;;;;;26.36;48.52;99465.88;5066743;28;8858;-70
2020/12/01 05:10:47;;;;;;;;;5.25;5.25;;;;;26.45;48.34;99463.75;5068759;28;8840;-71
2020/12/01 05:13:25;;;;;;;;;3.75;3.75;;;;;26.46;47.77;99459.91;5068842;28;8844;-70
2020/12/01 05:16:18;;;;;;;;;23.00;15.67;;;;;26.49;47.70;99456.50;5068604;28;8870;-69
2020/12/01 05:18:47;;;;;;;;;6.25;4.75;;;;;26.56;48.20;99453.16;5075341;28;9257;-70
2020/12/01 05:21:21;;;;;;;;;5.75;5.75;;;;;26.59;48.31;99441.63;5069872;28;8913;-71
2020/12/01 05:23:50;;;;;;;;;8.25;6.50;;;;;26.61;47.90;99437.41;5069990;28;8890;-71
2020/12/01 05:26:22;;;;;;;;;6.00;6.00;;;;;26.59;48.10;99425.38;5069808;28;8876;-71
2020/12/01 05:28:57;;;;;;;;;7.00;6.00;;;;;26.54;48.14;99406.72;5070255;28;8848;-70
2020/12/01 05:31:40;;;;;;;;;6.50;6.00;;;;;26.68;47.74;99415.13;5069920;28;8844;-70
2020/12/01 05:34:19;;;;;;;;;4.50;4.50;;;;;26.74;47.40;99407.50;5085660;28;8859;-70
2020/12/01 05:36:48;;;;;;;;;4.25;4.25;;;;;26.76;47.51;99399.81;5068920;28;8872;-71
2020/12/01 05:39:21;;;;;;;;;9.00;7.00;;;;;26.79;47.50;99402.56;5070061;28;9681;-71
2020/12/01 05:42:13;;;;;;;;;11.75;9.75;;;;;26.86;47.72;99394.59;5067996;28;8862;-72
2020/12/01 05:44:41;;;;;;;;;6.00;4.25;;;;;26.86;47.37;99375.63;5099872;28;8937;-70
2020/12/01 05:47:14;;;;;;;;;5.50;4.00;;;;;26.93;47.41;99364.94;5071297;28;8835;-70
2020/12/01 05:49:50;;;;;;;;;6.50;5.00;;;;;26.95;47.38;99364.56;5071391;28;8887;-72
2020/12/01 05:52:27;;;;;;;;;7.25;3.75;;;;;26.99;47.10;99364.66;5069297;28;8868;-71
2020/12/01 05:55:23;;;;;;;;;7.50;5.75;;;;;27.10;47.16;99360.22;5072269;28;8844;-69
2020/12/01 05:58:14;;;;;;;;;4.00;3.75;;;;;27.13;46.82;99351.38;5072439;28;8847;-70
2020/12/01 06:00:44;;;;;;;;;5.25;5.25;;;;;27.15;46.71;99341.72;5069839;28;8866;-71
2020/12/01 06:03:49;;;;;;;;;4.75;4.75;;;;;27.18;46.44;99332.88;5072974;28;8867;-70
2020/12/01 06:06:18;;;;;;;;;5.25;1.75;;;;;27.29;46.65;99336.53;5073939;28;8860;-70
2020/12/01 06:09:00;;;;;;;;;5.25;5.25;;;;;27.30;46.09;99329.94;5072606;28;8874;-70
2020/12/01 06:11:59;;;;;;;;;5.75;4.00;;;;;27.38;45.98;99321.94;5073297;28;8876;-70
2020/12/01 06:14:52;;;;;;;;;5.50;5.25;;;;;27.36;45.85;99300.63;5071208;28;8855;-69
2020/12/01 06:17:28;;;;;;;;;4.00;4.00;;;;;27.46;46.09;99299.22;5071811;28;8913;-69
2020/12/01 06:20:13;;;;;;;;;6.75;3.75;;;;;27.48;45.91;99303.13;5072935;28;8908;-71
2020/12/01 06:23:16;;;;;;;;;3.50;3.50;;;;;27.56;45.46;99302.06;5070624;28;8844;-69
2020/12/01 06:26:16;;;;;;;;;3.75;3.75;;;;;27.64;45.67;99292.16;5072822;28;9646;-70
2020/12/01 06:29:20;;;;;;;;;4.75;4.00;;;;;27.70;45.59;99290.69;5073748;28;9632;-69
2020/12/01 06:32:17;;;;;;;;;3.25;3.25;;;;;27.73;45.36;99292.66;5073499;28;9621;-70
2020/12/01 06:35:17;;;;;;;;;4.50;3.00;;;;;27.75;45.37;99287.63;5073720;28;9708;-69
2020/12/01 06:38:24;;;;;;;;;3.25;3.25;;;;;27.87;45.43;99278.50;5073747;28;8859;-71
2020/12/01 06:41:01;;;;;;;;;5.50;3.75;;;;;27.91;43.70;99284.75;5073417;28;8827;-72
2020/12/01 06:43:38;;;;;;;;;3.00;3.00;;;;;27.93;45.31;99266.19;5073323;28;8851;-71
2020/12/01 06:46:42;;;;;;;;;5.25;5.00;;;;;27.94;45.09;99273.16;5071920;28;8937;-68
2020/12/01 06:49:16;;;;;;;;;3.50;3.50;;;;;27.91;44.83;99269.25;5072069;28;8836;-71
2020/12/01 06:51:51;;;;;;;;;3.50;3.50;;;;;27.87;44.84;99260.28;5072516;28;8910;-69
2020/12/01 06:54:20;;;;;;;;;6.00;4.75;;;;;27.81;44.08;99259.06;5072312;28;8856;-69
2020/12/01 06:57:08;;;;;;;;;4.00;4.00;;;;;27.87;44.96;99264.94;5071892;28;8875;-70
2020/12/01 06:59:45;;;;;;;;;5.25;5.25;;;;;27.83;44.83;99258.69;5073228;28;8832;-69
2020/12/01 07:02:32;;;;;;;;;6.00;4.50;;;;;27.88;45.04;99250.22;5072706;28;8832;-69
2020/12/01 07:05:14;;;;;;;;;4.00;4.00;;;;;27.93;45.08;99244.47;5072706;28;8912;-69
2020/12/01 07:07:45;;;;;;;;;3.50;3.00;;;;;27.99;45.10;99245.72;5072689;28;8844;-68
2020/12/01 07:10:29;;;;;;;;;10.00;4.00;;;;;28.06;45.05;99237.66;5070769;28;8847;-71
2020/12/01 07:13:31;;;;;;;;;6.25;5.00;;;;;28.03;45.05;99230.25;5069051;28;8848;-70
2020/12/01 07:16:16;;;;;;;;;3.00;3.00;;;;;28.10;45.03;99226.84;5084910;28;8860;-69
2020/12/01 07:18:47;;;;;;;;;3.00;1.50;;;;;28.14;44.87;99227.66;5069701;28;8851;-69
2020/12/01 07:21:24;;;;;;;;;6.50;4.00;;;;;28.12;44.75;99208.28;5066819;28;8840;-70
2020/12/01 07:24:13;;;;;;;;;5.00;3.75;;;;;28.21;44.65;99211.47;5069074;28;8840;-70
2020/12/01 07:27:16;;;;;;;;;4.50;4.00;;;;;28.35;44.82;99221.69;5069351;28;8844;-69
2020/12/01 07:30:17;;;;;;;;;5.00;4.50;;;;;28.40;44.59;99222.13;5072283;28;8862;-69
2020/12/01 07:33:03;;;;;;;;;4.00;4.00;;;;;28.47;44.76;99216.78;5071244;28;8859;-69
2020/12/01 07:35:53;;;;;;;;;5.25;4.25;;;;;28.58;43.87;99208.72;5070556;28;8866;-69
2020/12/01 07:38:36;;;;;;;;;5.00;3.75;;;;;28.71;44.32;99212.69;5069008;28;8863;-69
2020/12/01 07:41:27;;;;;;;;;3.75;3.75;;;;;28.79;44.25;99205.38;5069757;28;8844;-69
2020/12/01 07:44:04;;;;;;;;;4.75;3.75;;;;;28.78;44.55;99210.03;5066051;28;8939;-70
2020/12/01 07:49:25;;;;;;;;;4.25;4.25;;;;;28.65;44.25;99202.53;5069473;28;8951;-70
2020/12/01 07:52:21;;;;;;;;;4.00;4.00;;;;;28.53;43.56;99188.13;5068359;28;9621;-70
2020/12/01 07:54:59;;;;;;;;;6.00;4.50;;;;;28.53;44.38;99195.50;5068507;28;8851;-69
2020/12/01 07:57:28;;;;;;;;;4.75;4.00;;;;;28.45;44.26;99178.38;5067876;28;8832;-70
2020/12/01 08:00:18;;;;;;;;;3.00;3.00;;;;;28.48;44.41;99176.84;5065398;28;8844;-80
2020/12/01 08:02:47;;;;;;;;;5.50;3.75;;;;;28.46;44.32;99171.78;5066412;28;8865;-69
2020/12/01 08:05:16;;;;;;;;;4.50;4.00;;;;;28.44;44.52;99165.19;5068497;28;8836;-71
2020/12/01 08:07:55;;;;;;;;;8.25;6.00;;;;;28.51;44.33;99170.66;5065781;28;8852;-70
2020/12/01 08:10:26;;;;;;;;;4.75;4.00;;;;;28.52;44.28;99164.88;5068169;28;8865;-69
2020/12/01 08:13:01;;;;;;;;;4.25;4.25;;;;;28.51;43.91;99163.31;5068469;28;8856;-69
2020/12/01 08:15:29;;;;;;;;;4.00;4.00;;;;;28.50;44.17;99169.09;5065691;28;8881;-69
2020/12/01 08:18:05;;;;;;;;;13.50;10.75;;;;;28.51;43.98;99155.16;5068518;28;8851;-70
2020/12/01 08:20:34;;;;;;;;;3.75;3.75;;;;;28.49;44.29;99157.47;5101776;28;8869;-70
2020/12/01 08:23:25;;;;;;;;;5.00;5.00;;;;;28.50;44.42;99159.03;5067489;28;8858;-70
2020/12/01 08:26:22;;;;;;;;;5.50;4.50;;;;;28.40;44.33;99148.09;5069295;28;8882;-69
2020/12/01 08:29:16;;;;;;;;;6.00;4.25;;;;;28.47;44.13;99164.44;5070646;28;8844;-69
2020/12/01 08:32:03;;;;;;;;;4.25;4.25;;;;;28.48;44.06;99155.91;5069258;28;8859;-69
2020/12/01 08:35:04;;;;;;;;;4.75;4.75;;;;;28.51;44.71;99152.44;5069219;28;8847;-69
2020/12/01 08:38:05;;;;;;;;;6.00;4.25;;;;;28.53;44.08;99147.44;5071335;28;8839;-69
2020/12/01 08:40:50;;;;;;;;;4.00;4.00;;;;;28.53;44.68;99139.28;5071496;28;9581;-69
2020/12/01 08:43:44;;;;;;;;;3.75;3.75;;;;;28.58;44.73;99149.78;5070891;28;8867;-70
2020/12/01 08:46:19;;;;;;;;;3.75;3.75;;;;;28.58;43.60;99146.31;5071621;28;8937;-69
2020/12/01 08:49:23;;;;;;;;;3.00;3.00;;;;;28.57;44.36;99147.44;5070501;28;8917;-69
2020/12/01 08:52:01;;;;;;;;;6.75;5.50;;;;;28.56;44.53;99149.38;5067129;28;8851;-69
2020/12/01 08:54:34;;;;;;;;;3.75;3.00;;;;;28.44;44.49;99135.34;5069768;28;8866;-70
2020/12/01 08:57:27;;;;;;;;;3.25;3.25;;;;;28.52;44.32;99145.09;5066211;28;9594;-69
2020/12/01 09:00:15;;;;;;;;;6.25;4.75;;;;;28.49;44.65;99152.03;5067529;28;8925;-70
2020/12/01 09:02:50;;;;;;;;;5.00;5.00;;;;;28.53;44.27;99144.72;5067538;28;9604;-70
2020/12/01 09:05:46;;;;;;;;;9.75;5.50;;;;;28.46;44.42;99146.59;5067998;28;8903;-70
2020/12/01 09:17:49;;;;;;;;;3.25;3.25;;;;;28.48;44.31;99164.06;5069150;28;8840;-72
2020/12/01 09:23:47;;;;;;;;;5.50;3.50;;;;;28.45;43.99;99164.03;5068046;28;8861;-71
2020/12/01 09:26:21;;;;;;;;;6.25;5.25;;;;;28.44;44.55;99159.75;5068361;28;8978;-72
2020/12/01 09:28:53;;;;;;;;;3.25;3.25;;;;;28.40;44.44;99157.00;5066323;28;8844;-71
2020/12/01 09:31:26;;;;;;;;;7.50;3.75;;;;;28.41;44.43;99166.72;5066674;28;8879;-72
2020/12/01 09:33:58;;;;;;;;;3.25;3.25;;;;;28.36;44.71;99152.72;5071810;28;8836;-71
2020/12/01 09:36:29;;;;;;;;;4.00;4.00;;;;;28.39;44.50;99165.53;5074329;28;8858;-71
2020/12/01 09:39:06;;;;;;;;;4.75;4.75;;;;;28.36;44.60;99166.28;5068510;28;8832;-73
2020/12/01 09:41:35;;;;;;;;;6.75;6.75;;;;;28.30;44.58;99157.69;5069066;28;8833;-72
2020/12/01 09:47:04;;;;;;;;;5.50;5.50;;;;;28.31;44.57;99164.69;5070511;28;8855;-72
2020/12/01 09:49:32;;;;;;;;;5.50;5.50;;;;;28.25;44.49;99160.75;5072309;28;8840;-71
2020/12/01 09:52:12;;;;;;;;;4.75;4.75;;;;;28.30;44.45;99173.22;5072909;28;8879;-71
2020/12/01 10:00:25;;;;;;;;;4.25;4.25;;;;;28.25;44.72;99177.03;5070118;28;8847;-70
2020/12/01 10:05:50;;;;;;;;;5.00;5.00;;;;;28.19;44.58;99184.72;5069316;28;8875;-71
2020/12/01 10:34:32;;;;;;;;;7.00;6.50;;;;;27.73;45.82;99205.13;5073566;28;8856;-70
2020/12/01 10:36:56;;;;;;;;;9.50;7.25;;;;;27.70;45.81;99208.56;5073048;28;8863;-70
2020/12/01 10:39:26;;;;;;;;;11.50;9.50;;;;;27.66;46.05;99213.19;5073223;28;8932;-70
2020/12/01 10:41:54;;;;;;;;;9.75;8.50;;;;;27.51;45.92;99212.97;5071438;28;8831;-70
2020/12/01 10:44:23;;;;;;;;;6.25;6.25;;;;;27.56;45.78;99214.56;5077227;28;8853;-70
2020/12/01 10:46:51;;;;;;;;;8.00;8.00;;;;;27.56;46.29;99226.19;5071427;28;8864;-69
2020/12/01 10:49:20;;;;;;;;;7.75;7.75;;;;;27.48;46.15;99229.19;5072078;28;8871;-70
2020/12/01 10:51:50;;;;;;;;;6.50;6.50;;;;;27.47;46.39;99230.31;5068237;28;8820;-70
2020/12/01 10:54:18;;;;;;;;;5.75;5.50;;;;;27.38;46.40;99218.97;5072274;28;8865;-70
2020/12/01 10:56:52;;;;;;;;;6.75;6.75;;;;;27.35;46.53;99222.44;5071630;28;8824;-69
2020/12/01 10:59:23;;;;;;;;;5.50;5.50;;;;;27.29;46.40;99222.00;5070147;28;8848;-70
2020/12/01 11:01:52;;;;;;;;;2.50;2.25;;;;;27.24;46.66;99225.81;5086588;28;8879;-70
2020/12/01 11:04:21;;;;;;;;;5.50;5.50;;;;;27.12;46.53;99211.69;5072697;28;8839;-69
2020/12/01 11:06:50;;;;;;;;;7.00;6.00;;;;;27.16;46.68;99234.97;5070920;28;8957;-70
2020/12/01 11:09:18;;;;;;;;;6.75;5.75;;;;;27.11;46.68;99232.56;5071282;28;8835;-70
2020/12/01 11:11:50;;;;;;;;;5.50;5.50;;;;;27.08;46.78;99238.72;5069920;28;8828;-69
2020/12/01 11:14:18;;;;;;;;;8.25;6.75;;;;;27.06;46.50;99241.00;5071991;28;8953;-69
2020/12/01 11:16:47;;;;;;;;;15.00;7.50;;;;;26.98;46.91;99227.72;5071975;28;8879;-70
2020/12/01 11:19:15;;;;;;;;;7.50;6.50;;;;;26.99;46.96;99235.50;5071438;28;8836;-69
2020/12/01 11:21:45;;;;;;;;;7.25;7.25;;;;;27.00;47.26;99256.00;5069255;28;8805;-70
2020/12/01 11:24:13;;;;;;;;;8.50;7.25;;;;;26.96;46.79;99247.81;5069590;28;8832;-72
2020/12/01 11:26:42;;;;;;;;;6.25;6.25;;;;;26.80;46.80;99230.13;5070642;28;8846;-69
2020/12/01 11:29:11;;;;;;;;;7.50;6.25;;;;;26.92;47.11;99254.28;5069131;28;8875;-70
2020/12/01 11:31:44;;;;;;;;;5.00;5.00;;;;;26.91;46.95;99260.84;5070080;28;8868;-70
2020/12/01 11:34:13;;;;;;;;;8.25;7.25;;;;;26.88;46.93;99258.88;5085524;28;8866;-69
2020/12/01 11:36:42;;;;;;;;;7.25;7.25;;;;;26.86;47.11;99259.22;5070181;28;8848;-70
2020/12/01 11:39:14;;;;;;;;;13.75;11.00;;;;;26.90;46.96;99270.91;5069315;28;8909;-69
2020/12/01 11:41:43;;;;;;;;;9.00;8.50;;;;;26.86;47.17;99259.22;5068896;28;8852;-70
2020/12/01 11:44:13;;;;;;;;;6.50;5.75;;;;;26.87;47.20;99271.63;5072099;28;8925;-71
2020/12/01 11:46:42;;;;;;;;;9.75;8.25;;;;;26.81;47.02;99269.59;5067755;28;8963;-71
2020/12/01 11:49:11;;;;;;;;;6.00;5.75;;;;;26.80;47.36;99273.44;5067573;28;8896;-71
2020/12/01 11:51:41;;;;;;;;;6.75;6.25;;;;;26.72;47.28;99275.25;5068631;28;8848;-70
2020/12/01 11:54:10;;;;;;;;;7.25;7.25;;;;;26.70;47.39;99282.16;5070034;28;8926;-70
2020/12/01 11:56:39;;;;;;;;;8.75;8.75;;;;;26.69;47.62;99289.50;5069027;28;9005;-70
2020/12/01 11:59:07;;;;;;;;;11.75;10.50;;;;;26.65;47.72;99280.53;5067908;28;8846;-69
2020/12/01 12:01:36;;;;;;;;;10.50;9.50;;;;;26.63;47.90;99288.22;5067508;28;8862;-69
2020/12/01 12:04:05;;;;;;;;;9.50;9.50;;;;;26.61;47.79;99291.28;5068220;28;8871;-68
2020/12/01 12:06:35;;;;;;;;;13.00;10.75;;;;;26.57;47.51;99287.75;5067956;28;8925;-69
2020/12/01 12:09:07;;;;;;;;;11.00;11.00;;;;;26.53;47.44;99286.91;5067784;28;8855;-69
2020/12/01 12:11:37;;;;;;;;;12.75;11.00;;;;;26.41;47.60;99278.16;5068355;28;8844;-70
2020/12/01 12:14:05;;;;;;;;;10.50;10.50;;;;;26.49;47.93;99296.88;5068618;28;8863;-69
2020/12/01 12:16:34;;;;;;;;;11.75;10.75;;;;;26.44;48.07;99297.16;5066747;28;8878;-69
2020/12/01 12:19:04;;;;;;;;;12.25;12.25;;;;;26.41;48.18;99297.88;5067288;28;8843;-69
2020/12/01 12:21:33;;;;;;;;;15.00;14.25;;;;;26.41;48.12;99299.81;5071799;28;8844;-69
2020/12/01 12:24:02;;;;;;;;;14.50;12.50;;;;;26.36;48.05;99306.28;5070026;28;8855;-69
2020/12/01 12:26:31;;;;;;;;;19.75;13.75;;;;;26.28;48.07;99293.75;5069641;28;8941;-70
2020/12/01 12:29:00;;;;;;;;;13.75;12.75;;;;;26.36;47.91;99321.75;5069167;28;8848;-70
2020/12/01 12:31:28;;;;;;;;;10.00;10.00;;;;;26.25;47.93;99310.69;5069198;28;8840;-69
2020/12/01 12:33:58;;;;;;;;;11.25;9.75;;;;;26.28;48.09;99315.38;5069501;28;8972;-69
2020/12/01 12:36:27;;;;;;;;;15.25;11.75;;;;;26.25;48.42;99314.16;5068704;28;8913;-69
2020/12/01 12:38:56;;;;;;;;;13.50;12.00;;;;;26.30;48.32;99329.31;5067859;28;8863;-69
2020/12/01 12:41:25;;;;;;;;;11.75;10.75;;;;;26.28;48.16;99326.97;5065223;28;8852;-69
2020/12/01 12:43:59;;;;;;;;;11.50;9.75;;;;;26.24;48.04;99326.13;5066075;28;8870;-69
2020/12/01 12:46:31;;;;;;;;;13.25;12.25;;;;;26.22;48.13;99325.69;5067112;28;8921;-69
2020/12/01 12:49:02;;;;;;;;;12.00;11.00;;;;;26.19;48.24;99326.41;5067542;28;8871;-71
2020/12/01 12:51:31;;;;;;;;;12.25;10.75;;;;;26.26;48.22;99344.69;5068125;28;8945;-70
2020/12/01 12:54:00;;;;;;;;;13.25;10.75;;;;;26.24;48.49;99345.06;5066019;28;8945;-69
2020/12/01 12:56:28;;;;;;;;;13.75;12.25;;;;;26.21;48.50;99347.69;5065169;28;9682;-70
2020/12/01 12:58:57;;;;;;;;;11.00;11.00;;;;;26.18;48.58;99354.59;5066319;28;8856;-70
2020/12/01 13:01:26;;;;;;;;;22.33;21.67;;;;;26.20;48.38;99362.34;5069690;28;8943;-70
2020/12/01 13:03:55;;;;;;;;;4.25;2.00;;;;;26.20;48.22;99359.66;5067613;28;10130;-69